Columbus, OH (43085)

5:34 PM EST on December 04, 2016 (GMT -0500)
Worthington Wilson Hill | | Change Station

Elev 902 ft 40.10 °N, 83.01 °W | Updated 18 seconds ago

Light Rain
Light Rain
38.7 °F
Feels Like 39 °F
N
1.0
Wind Variable Wind from ESE

Today
High -- | Low -- °F
--% Chance of Precip.
Yesterday
High -- | Low -- °F
Precip. -- in
Pressure 29.96 in
Visibility 10.0 miles
Clouds Overcast 3900 ft
Windchill 39 °F
Dew Point 38 °F
Humidity 98%
Rainfall 0.00 in
Snow Depth Not available.
7:38 AM 5:06 PM
Waxing Crescent, 26% visible
METAR KOSU 042153Z 11010KT 10SM -RA OVC039 04/M01 A2994 RMK AO2 RAB33 SLP146 P0000 T00391011
Pressure 29.96 in
Visibility 10.0 miles
Clouds Overcast 3900 ft
Windchill 39 °F
Dew Point 38 °F
Humidity 98%
Rainfall 0.00 in
Snow Depth Not available.
7:38 AM 5:06 PM
Waxing Crescent, 26% visible
METAR KOSU 042153Z 11010KT 10SM -RA OVC039 04/M01 A2994 RMK AO2 RAB33 SLP146 P0000 T00391011

10-Day Weather Forecast

Almanac

Astronomy

Dec. 04, 2016 Rise Set
Actual Time
Civil Twilight
Nautical Twilight
Astronomical Twilight
Moon
Length of Visible Light
Length of Day
Tomorrow will be .
, % of the Moon is Illuminated

Today's Extremes

State Highs State Lows

Community

WunderPhotos

Upload Photos

1,955,685 photos uploaded!

WunderBlog® & News

Nearby

Air Quality

  Air Quality AQ Index Pollutant
Not available.

Snow Depth

Station Depth Elevation

Earthquake Activity

City Distance Mag. Time & Date
Minimum magnitude displayed is 2.5.

Coastal Water Temperatures

Place Temperature

Stations

Nearby Weather Stations

Station Location Temp. Windchill Dew Point Humidity Wind Precip. Elev Updated Type
                   

Watches & Warnings

There are currently no watches in effect.